Latest Weather Observations for Minnipa RS

IDS60801

Issued at 4:52 pm CDT Thursday 28 January 2021 (issued every 10 minutes, with the page automatically refreshed every 10 minutes)

About weather observations | Map of weather stations | Latest weather observations for SA | Other Formats
Station Details ID: 018195 Name: MINNIPA PIRSA Lat: -32.84 Lon: 135.15 Height: 165.0 m
Data from the previous 72 hours. | See also: Recent months at Minnipa RS
Date/Time
CDT
Temp
°C
App
Temp
°C
Dew
Point
°C
Rel
Hum
%
Delta-T
°C
Wind Press
QNH
hPa
Press
MSL
hPa
Rain since
9am
mm
Dir  Spd
km/h
Gust
km/h
Spd
kts
Gust
kts
28/04:30pm 20.4 19.1 18.2 87 1.4 SE 22 28 12 15 1010.4 1009.6 12.8
28/04:00pm 20.3 19.8 18.6 90 1.1 SSE 19 24 10 13 1010.9 1010.0 12.8
28/03:30pm 19.4 18.8 17.5 89 1.2 SSE 17 20 9 11 1011.6 1010.7 12.4
28/03:00pm 19.1 18.3 17.2 89 1.2 SSE 17 20 9 11 1011.5 1010.6 12.4
28/02:30pm 19.1 18.4 17.4 90 1.0 SSE 17 20 9 11 1011.7 1010.8 12.4
28/02:00pm 18.4 16.5 16.7 90 1.0 SSE 22 28 12 15 1011.4 1010.5 12.4
28/01:30pm 18.4 17.1 16.7 90 1.0 SSE 19 26 10 14 1011.6 1010.7 11.4
28/01:00pm 18.2 15.0 16.4 89 1.1 SSE 28 35 15 19 1011.4 1010.5 9.0
28/12:30pm 18.1 15.7 16.4 90 1.0 SE 24 33 13 18 1011.5 1010.6 9.0
28/12:00pm 18.0 15.9 16.3 90 1.0 SSE 22 28 12 15 1012.6 1011.8 8.0
28/11:30am 17.6 15.8 15.9 90 1.0 SE 20 28 11 15 1012.3 1011.5 7.6
28/11:00am 17.1 14.7 15.3 89 1.1 SSE 22 28 12 15 1012.5 1011.7 6.4
28/10:30am 17.2 15.7 15.2 88 1.2 S 17 24 9 13 1013.0 1012.2 5.0
28/10:00am 17.6 16.1 15.4 87 1.3 SSW 17 22 9 12 1013.0 1012.2 3.0
28/09:30am 18.6 16.5 15.1 80 2.1 SW 20 30 11 16 1012.8 1012.0 0.6
28/09:00am 20.9 20.2 14.3 66 3.9 E 11 13 6 7 1011.2 1010.3 0.0
28/08:30am 21.3 19.5 13.2 60 4.7 E 15 19 8 10 1010.3 1009.5 0.0
28/08:00am 20.0 19.1 13.7 67 3.6 SE 11 15 6 8 1010.4 1009.6 0.0
28/07:30am 19.2 18.2 13.4 69 3.3 SSE 11 13 6 7 1010.5 1009.7 0.0
28/07:00am 19.2 18.0 12.9 67 3.6 ESE 11 17 6 9 1010.0 1009.2 0.0
28/06:30am 19.4 17.9 13.1 67 3.6 ESE 13 19 7 10 1009.8 1009.0 0.0
28/06:00am 19.3 17.5 13.3 68 3.4 SE 15 19 8 10 1009.5 1008.7 0.0
28/05:30am 19.5 17.6 13.0 66 3.7 ESE 15 19 8 10 1009.5 1008.7 0.0
28/05:00am 19.5 16.9 13.2 67 3.6 ESE 19 22 10 12 1009.2 1008.4 0.0
28/04:30am 19.4 17.5 13.1 67 3.6 ESE 15 20 8 11 1009.5 1008.7 0.0
28/04:00am 19.3 16.7 13.3 68 3.4 ESE 19 24 10 13 1009.4 1008.6 0.0
28/03:30am 19.1 16.3 13.3 69 3.3 SE 20 28 11 15 1009.5 1008.7 0.0
28/03:00am 19.1 16.5 13.1 68 3.4 SE 19 24 10 13 1010.1 1009.3 0.0
28/02:30am 19.1 16.2 12.8 67 3.6 SE 20 26 11 14 1009.9 1009.1 0.0
28/02:00am 19.3 16.5 12.6 65 3.8 SE 19 24 10 13 1010.3 1009.5 0.0
28/01:30am 19.6 16.6 12.4 63 4.1 SE 20 28 11 15 1010.9 1010.0 0.0
28/01:00am 19.9 16.8 12.2 61 4.3 SE 20 26 11 14 1010.9 1010.0 0.0
28/12:30am 20.1 16.9 11.8 59 4.6 SE 20 28 11 15 1010.9 1010.0 0.0
28/12:00am 20.4 16.1 11.9 58 4.8 SE 26 35 14 19 1010.6 1009.8 0.0
 
Date/Time
CDT
Temp
°C
App
Temp
°C
Dew
Point
°C
Rel
Hum
%
Delta-T
°C
Wind Press
QNH
hPa
Press
MSL
hPa
Rain since
9am
mm
Dir  Spd
km/h
Gust
km/h
Spd
kts
Gust
kts
27/11:30pm 21.0 15.8 11.6 55 5.3 SE 30 37 16 20 1010.4 1009.6 0.0
27/11:00pm 21.7 16.3 10.8 50 6.0 SE 30 37 16 20 1010.4 1009.6 0.0
27/10:30pm 22.4 16.7 11.2 49 6.3 SE 32 39 17 21 1010.1 1009.3 0.0
27/10:00pm 23.2 19.2 10.3 44 7.1 SSE 22 26 12 14 1010.0 1009.2 0.0
27/09:30pm 23.1 18.9 9.8 43 7.3 SSE 22 30 12 16 1009.7 1008.9 0.0
27/09:00pm 23.6 19.4 9.6 41 7.7 S 22 30 12 16 1010.1 1009.3 0.0
27/08:30pm 24.5 19.8 9.3 38 8.3 S 24 33 13 18 1009.9 1009.1 0.0
27/08:00pm 25.4 19.2 8.0 33 9.4 S 30 39 16 21 1009.6 1008.8 0.0
27/07:30pm 26.5 20.0 8.0 31 10.0 SSW 32 39 17 21 1009.0 1008.2 0.0
27/07:00pm 28.0 21.1 7.3 27 11.2 SSW 33 43 18 23 1008.5 1007.7 0.0
27/06:48pm 29.4 25.5 7.3 25 12.0 SSW 17 35 9 19 1008.3 1007.5 0.0
27/06:30pm 30.5 27.9 4.3 19 13.6 SSW 7 17 4 9 1008.2 1007.4 0.0
27/06:00pm 30.2 27.3 4.8 20 13.3 ESE 9 19 5 10 1008.2 1007.4 0.0
27/05:30pm 30.0 28.2 5.3 21 13.0 SW 4 9 2 5 1008.5 1007.7 0.0
27/05:00pm 30.2 27.5 5.5 21 13.1 E 9 13 5 7 1008.7 1007.9 0.0
27/04:30pm 29.0 25.8 5.1 22 12.5 N 11 20 6 11 1008.9 1008.1 0.0
27/04:00pm 29.8 26.9 6.5 23 12.5 WSW 11 20 6 11 1009.3 1008.5 0.0
27/03:30pm 29.0 26.2 7.0 25 11.9 NW 11 19 6 10 1009.7 1008.9 0.0
27/03:00pm 28.9 26.5 6.9 25 11.8 E 9 19 5 10 1010.0 1009.2 0.0
27/02:30pm 27.7 25.3 7.0 27 11.1 SE 9 15 5 8 1010.4 1009.6 0.0
27/02:00pm 28.0 26.5 8.3 29 10.8 SE 6 13 3 7 1010.5 1009.7 0.0
27/01:30pm 26.7 24.6 8.2 31 10.1 SSE 9 17 5 9 1010.9 1010.0 0.0
27/01:00pm 26.3 24.6 8.3 32 9.8 E 7 15 4 8 1011.4 1010.5 0.0
27/12:30pm 24.8 21.9 8.3 35 8.9 SE 13 20 7 11 1011.6 1010.7 0.0
27/12:00pm 24.4 21.9 8.4 36 8.6 E 11 19 6 10 1011.8 1010.9 0.0
27/11:30am 23.6 20.0 8.5 38 8.1 E 17 24 9 13 1011.7 1010.8 0.0
27/11:00am 21.7 18.6 10.2 48 6.3 ESE 17 24 9 13 1011.8 1010.9 0.0
27/10:30am 20.1 16.6 10.8 55 5.1 ESE 20 28 11 15 1011.7 1010.8 0.0
27/10:00am 19.5 15.2 10.8 57 4.8 ESE 24 30 13 16 1011.8 1010.9 0.0
27/09:30am 18.4 14.2 11.0 62 4.0 ESE 24 32 13 17 1011.6 1010.7 0.0
27/09:00am 17.3 13.2 11.3 68 3.3 ESE 24 32 13 17 1011.6 1010.7 0.0
27/08:30am 16.4 11.9 11.3 72 2.8 ESE 26 33 14 18 1011.6 1010.7 0.0
27/08:00am 15.4 11.2 11.2 76 2.3 E 24 32 13 17 1011.5 1010.6 0.0
27/07:30am 14.6 11.1 10.8 78 2.0 E 20 28 11 15 1011.3 1010.4 0.0
27/07:00am 14.1 10.1 10.5 79 1.9 E 22 30 12 16 1011.0 1010.1 0.0
27/06:30am 13.8 10.1 10.2 79 1.9 E 20 26 11 14 1010.6 1009.8 0.0
27/06:00am 14.1 10.4 10.3 78 2.0 E 20 26 11 14 1010.2 1009.4 0.0
27/05:30am 14.0 10.9 10.4 79 1.9 ESE 17 22 9 12 1010.0 1009.2 0.0
27/05:00am 13.4 10.7 10.4 82 1.6 ESE 15 19 8 10 1009.9 1009.1 0.0
27/04:30am 13.9 11.4 10.9 82 1.6 ESE 15 20 8 11 1010.0 1009.2 0.0
27/04:00am 13.8 11.2 10.8 82 1.6 SE 15 19 8 10 1010.2 1009.4 0.0
27/03:30am 14.0 11.8 10.8 81 1.7 SE 13 15 7 8 1010.2 1009.4 0.0
27/03:00am 14.4 11.8 10.8 79 1.9 SE 15 17 8 9 1010.3 1009.5 0.0
27/02:30am 14.7 12.5 10.7 77 2.1 SE 13 17 7 9 1010.3 1009.5 0.0
27/02:00am 15.1 12.9 10.7 75 2.3 SE 13 17 7 9 1010.5 1009.7 0.0
27/01:30am 15.6 12.6 10.6 72 2.7 ESE 17 20 9 11 1010.7 1009.9 0.0
27/01:00am 16.1 13.1 10.6 70 2.9 ESE 17 22 9 12 1010.6 1009.8 0.0
27/12:30am 16.5 12.5 10.6 68 3.2 ESE 22 30 12 16 1010.4 1009.6 0.0
27/12:00am 17.0 13.0 10.4 65 3.5 ESE 22 32 12 17 1010.5 1009.7 0.0
 
Date/Time
CDT
Temp
°C
App
Temp
°C
Dew
Point
°C
Rel
Hum
%
Delta-T
°C
Wind Press
QNH
hPa
Press
MSL
hPa
Rain since
9am
mm
Dir  Spd
km/h
Gust
km/h
Spd
kts
Gust
kts
26/11:30pm 17.4 14.5 9.6 60 4.1 SE 15 24 8 13 1010.6 1009.8 0.0
26/11:00pm 17.4 14.5 8.3 55 4.7 SSE 13 17 7 9 1010.4 1009.6 0.0
26/10:30pm 18.1 14.6 8.7 54 4.9 SSE 17 22 9 12 1010.1 1009.3 0.0
26/10:00pm 18.6 14.7 8.6 52 5.2 S 19 24 10 13 1009.9 1009.1 0.0
26/09:30pm 19.3 15.0 8.0 48 5.9 S 20 28 11 15 1009.7 1008.9 0.0
26/09:00pm 20.0 14.8 7.4 44 6.5 SSW 24 32 13 17 1009.4 1008.6 0.0
26/08:30pm 21.2 16.0 7.4 41 7.2 S 24 32 13 17 1008.9 1008.1 0.0
26/08:00pm 22.3 16.4 7.3 38 7.8 SSW 28 35 15 19 1008.4 1007.6 0.0
26/07:30pm 23.4 17.5 7.5 36 8.4 SSW 28 35 15 19 1008.1 1007.3 0.0
26/07:00pm 23.7 17.8 7.3 35 8.6 SSW 28 37 15 20 1007.6 1006.8 0.0
26/06:30pm 24.2 17.9 7.4 34 8.9 SSW 30 43 16 23 1007.4 1006.6 0.0
26/06:00pm 25.0 19.2 8.1 34 9.1 SSW 28 43 15 23 1007.2 1006.4 0.0
26/05:30pm 25.7 21.5 7.3 31 9.8 SSE 19 28 10 15 1007.2 1006.4 0.0
26/05:00pm 25.6 21.8 7.7 32 9.6 SSW 17 28 9 15 1007.2 1006.4 0.0
26/04:30pm 25.9 22.4 8.8 34 9.4 SSW 17 30 9 16 1007.4 1006.6 0.0
26/04:00pm 25.2 21.5 9.5 37 8.7 SSE 19 24 10 13 1007.8 1007.0 0.0
26/03:30pm 26.3 22.6 10.0 36 9.1 S 20 32 11 17 1008.0 1007.2 0.0
26/03:00pm 24.9 21.8 10.4 40 8.1 SSE 17 28 9 15 1008.2 1007.4 0.0
26/02:30pm 24.5 21.7 10.0 40 8.1 SSW 15 20 8 11 1008.3 1007.5 0.0
26/02:00pm 23.0 20.8 10.8 46 6.8 S 13 22 7 12 1008.6 1007.8 0.0
26/01:30pm 22.3 19.1 11.1 49 6.3 S 19 28 10 15 1008.8 1008.0 0.0
26/01:00pm 21.7 18.9 11.4 52 5.8 S 17 26 9 14 1009.0 1008.2 0.0
26/12:30pm 21.0 17.7 11.6 55 5.3 S 20 26 11 14 1009.2 1008.4 0.0
26/12:00pm 20.7 17.4 11.6 56 5.1 S 20 28 11 15 1009.3 1008.5 0.0
26/11:30am 20.5 17.5 12.5 60 4.5 SSE 20 28 11 15 1009.1 1008.3 0.0
26/11:00am 19.9 16.3 11.9 60 4.5 SSE 22 30 12 16 1009.1 1008.3 0.0
26/10:30am 19.7 16.9 12.5 63 4.1 S 19 24 10 13 1008.8 1008.0 0.0
26/10:00am 19.3 16.3 12.6 65 3.8 S 20 30 11 16 1008.6 1007.8 0.0
26/09:30am 18.5 14.5 11.8 65 3.7 SSE 24 33 13 18 1008.5 1007.7 0.0
26/09:00am 18.6 14.7 12.1 66 3.6 SSE 24 33 13 18 1008.2 1007.4 2.4
26/08:30am 17.9 13.5 12.8 72 2.9 SSE 28 33 15 18 1007.9 1007.1 2.4
26/08:00am 17.6 13.7 13.3 76 2.4 S 26 33 14 18 1007.5 1006.7 2.4
26/07:30am 17.4 14.3 13.3 77 2.3 S 22 28 12 15 1007.4 1006.6 2.4
26/07:00am 17.6 15.6 13.9 79 2.1 S 17 22 9 12 1006.9 1006.1 2.4
26/06:30am 17.6 15.5 13.7 78 2.2 S 17 24 9 13 1006.4 1005.5 2.4
26/06:00am 17.6 15.1 14.1 80 2.0 S 20 26 11 14 1006.1 1005.2 2.4
26/05:30am 17.7 15.4 14.2 80 2.0 S 19 24 10 13 1005.8 1004.9 2.4
26/05:00am 17.7 15.4 14.2 80 2.0 S 19 24 10 13 1005.6 1004.7 2.4
26/04:30am 17.8 15.6 14.5 81 1.9 S 19 24 10 13 1005.4 1004.5 2.4
26/04:00am 17.9 15.3 15.0 83 1.7 SSW 22 28 12 15 1005.1 1004.2 2.4
26/03:30am 18.4 16.9 15.3 82 1.8 SSW 17 22 9 12 1005.2 1004.3 2.4
26/03:00am 18.5 17.1 15.6 83 1.7 SSW 17 20 9 11 1005.1 1004.2 2.4
26/02:30am 18.7 16.9 16.1 85 1.6 S 20 24 11 13 1004.9 1004.0 2.4
26/02:00am 18.8 17.6 16.2 85 1.6 S 17 22 9 12 1005.2 1004.3 2.4
26/01:30am 19.0 17.5 16.2 84 1.7 SSE 19 24 10 13 1005.1 1004.2 2.4
26/01:00am 19.7 18.3 16.5 82 1.9 S 19 24 10 13 1005.2 1004.3 2.4
26/12:30am 19.9 18.9 16.7 82 2.0 S 17 20 9 11 1005.1 1004.2 2.4
26/12:00am 19.7 18.4 16.7 83 1.8 S 19 26 10 14 1004.9 1004.0 2.4
 
Date/Time
CDT
Temp
°C
App
Temp
°C
Dew
Point
°C
Rel
Hum
%
Delta-T
°C
Wind Press
QNH
hPa
Press
MSL
hPa
Rain since
9am
mm
Dir  Spd
km/h
Gust
km/h
Spd
kts
Gust
kts
25/11:30pm 19.7 18.0 16.3 81 2.1 S 20 26 11 14 1004.9 1004.0 2.4
25/11:00pm 20.0 18.3 16.2 79 2.3 S 20 28 11 15 1004.7 1003.8 2.4
25/10:30pm 20.2 18.3 16.8 81 2.1 S 22 28 12 15 1004.6 1003.7 2.4
25/10:00pm 20.3 18.3 16.5 79 2.3 SSW 22 28 12 15 1004.3 1003.5 2.4
25/09:30pm 20.8 18.8 16.4 76 2.7 SSW 22 30 12 16 1003.7 1002.9 2.4
25/09:00pm 21.5 18.3 16.2 72 3.2 SSW 28 39 15 21 1003.0 1002.2 2.4
25/08:30pm 22.4 18.8 16.2 68 3.8 SSW 30 37 16 20 1002.4 1001.6 2.4
25/08:00pm 23.4 19.3 16.4 64 4.3 SW 33 43 18 23 1001.7 1000.9 2.4
25/07:30pm 25.2 21.1 16.4 58 5.5 SSW 33 43 18 23 1001.1 1000.2 2.4
25/07:00pm 26.4 22.2 16.3 53 6.3 SSW 33 43 18 23 1000.7 999.8 2.4
25/06:30pm 27.9 24.0 16.5 50 7.2 SSW 32 41 17 22 1000.0 999.1 2.4
25/06:00pm 29.1 27.7 17.0 48 7.7 S 20 35 11 19 999.9 999.0 2.4
25/05:30pm 29.4 29.6 18.5 52 7.1 SSW 15 24 8 13 999.9 999.0 2.4
25/05:00pm 27.6 28.0 19.1 59 5.5 SSE 15 22 8 12 1000.2 999.3 2.4

Other formats

Comma delimited format used in spreadsheet applications
http://www.bom.gov.au/fwo/IDS60801/IDS60801.95662.axf

JavaScript Object Notation format (JSON) in row-major order
http://www.bom.gov.au/fwo/IDS60801/IDS60801.95662.json

Data quality

Most of these data are generated automatically and are frequently updated. Quality checks on data are not normally performed. It is possible for incorrect values to appear. Refer to information at About Latest Weather Observations and please check the disclaimer before using these data.